sensor_id;sensor_type;location;lat;lon;timestamp;P1;durP1;ratioP1;P2;durP2;ratioP2
41333;SDS011;27078;46.428;6.256;2023-02-28T00:00:00;8.20;;;5.75;;
41333;SDS011;27078;46.428;6.256;2023-02-28T00:02:25;7.93;;;5.97;;
41333;SDS011;27078;46.428;6.256;2023-02-28T00:04:50;9.07;;;5.90;;
41333;SDS011;27078;46.428;6.256;2023-02-28T00:07:18;7.38;;;5.88;;
41333;SDS011;27078;46.428;6.256;2023-02-28T00:09:43;7.55;;;5.88;;
41333;SDS011;27078;46.428;6.256;2023-02-28T00:12:09;8.98;;;6.25;;
41333;SDS011;27078;46.428;6.256;2023-02-28T00:14:35;8.63;;;5.95;;
41333;SDS011;27078;46.428;6.256;2023-02-28T00:17:01;8.95;;;6.15;;
41333;SDS011;27078;46.428;6.256;2023-02-28T00:19:27;8.85;;;5.68;;
41333;SDS011;27078;46.428;6.256;2023-02-28T00:21:52;9.13;;;6.32;;
41333;SDS011;27078;46.428;6.256;2023-02-28T00:24:17;8.95;;;6.15;;
41333;SDS011;27078;46.428;6.256;2023-02-28T00:26:43;8.82;;;6.25;;
41333;SDS011;27078;46.428;6.256;2023-02-28T00:29:08;9.45;;;6.65;;
41333;SDS011;27078;46.428;6.256;2023-02-28T00:31:34;9.95;;;6.50;;
41333;SDS011;27078;46.428;6.256;2023-02-28T00:34:00;8.63;;;6.40;;
41333;SDS011;27078;46.428;6.256;2023-02-28T00:36:25;10.65;;;6.72;;
41333;SDS011;27078;46.428;6.256;2023-02-28T00:38:51;8.50;;;6.53;;
41333;SDS011;27078;46.428;6.256;2023-02-28T00:41:16;12.02;;;6.65;;
41333;SDS011;27078;46.428;6.256;2023-02-28T00:43:41;12.30;;;6.47;;
41333;SDS011;27078;46.428;6.256;2023-02-28T00:46:07;7.85;;;6.38;;
41333;SDS011;27078;46.428;6.256;2023-02-28T00:48:33;10.57;;;6.70;;
41333;SDS011;27078;46.428;6.256;2023-02-28T00:50:59;10.32;;;6.78;;
41333;SDS011;27078;46.428;6.256;2023-02-28T00:53:24;10.05;;;6.70;;
41333;SDS011;27078;46.428;6.256;2023-02-28T00:55:50;8.65;;;6.80;;
41333;SDS011;27078;46.428;6.256;2023-02-28T00:58:15;9.75;;;6.53;;
41333;SDS011;27078;46.428;6.256;2023-02-28T01:00:40;10.88;;;7.28;;
41333;SDS011;27078;46.428;6.256;2023-02-28T01:03:06;10.02;;;7.50;;
41333;SDS011;27078;46.428;6.256;2023-02-28T01:05:31;10.98;;;7.32;;
41333;SDS011;27078;46.428;6.256;2023-02-28T01:07:56;10.15;;;7.07;;
41333;SDS011;27078;46.428;6.256;2023-02-28T01:10:22;9.60;;;6.97;;
41333;SDS011;27078;46.428;6.256;2023-02-28T01:12:47;11.57;;;7.47;;
41333;SDS011;27078;46.428;6.256;2023-02-28T01:15:12;9.90;;;6.90;;
41333;SDS011;27078;46.428;6.256;2023-02-28T01:17:38;11.82;;;7.35;;
41333;SDS011;27078;46.428;6.256;2023-02-28T01:20:03;11.02;;;6.88;;
41333;SDS011;27078;46.428;6.256;2023-02-28T01:22:29;10.35;;;6.78;;
41333;SDS011;27078;46.428;6.256;2023-02-28T01:24:54;9.95;;;7.00;;
41333;SDS011;27078;46.428;6.256;2023-02-28T01:27:20;9.50;;;7.10;;
41333;SDS011;27078;46.428;6.256;2023-02-28T01:29:45;9.40;;;7.22;;
41333;SDS011;27078;46.428;6.256;2023-02-28T01:32:10;10.00;;;7.55;;
41333;SDS011;27078;46.428;6.256;2023-02-28T01:34:35;11.30;;;7.20;;
41333;SDS011;27078;46.428;6.256;2023-02-28T01:37:01;9.60;;;7.30;;
41333;SDS011;27078;46.428;6.256;2023-02-28T01:39:28;10.07;;;7.20;;
41333;SDS011;27078;46.428;6.256;2023-02-28T01:41:53;10.15;;;7.57;;
41333;SDS011;27078;46.428;6.256;2023-02-28T01:49:49;10.50;;;7.28;;
41333;SDS011;27078;46.428;6.256;2023-02-28T01:52:16;10.68;;;7.60;;
41333;SDS011;27078;46.428;6.256;2023-02-28T01:54:44;10.32;;;7.20;;
41333;SDS011;27078;46.428;6.256;2023-02-28T01:59:44;11.02;;;7.00;;
41333;SDS011;27078;46.428;6.256;2023-02-28T02:02:15;10.48;;;7.88;;
41333;SDS011;27078;46.428;6.256;2023-02-28T02:05:03;11.88;;;7.43;;
41333;SDS011;27078;46.428;6.256;2023-02-28T02:07:37;11.80;;;7.63;;
41333;SDS011;27078;46.428;6.256;2023-02-28T02:18:04;11.38;;;7.80;;
41333;SDS011;27078;46.428;6.256;2023-02-28T02:26:27;10.68;;;7.25;;
41333;SDS011;27078;46.428;6.256;2023-02-28T02:42:45;11.05;;;7.60;;
41333;SDS011;27078;46.428;6.256;2023-02-28T02:47:53;12.00;;;8.23;;
41333;SDS011;27078;46.428;6.256;2023-02-28T02:50:26;11.77;;;7.72;;
41333;SDS011;27078;46.428;6.256;2023-02-28T02:52:58;12.38;;;8.15;;
41333;SDS011;27078;46.428;6.256;2023-02-28T02:55:26;12.55;;;7.50;;
41333;SDS011;27078;46.428;6.256;2023-02-28T02:57:59;10.18;;;7.53;;
41333;SDS011;27078;46.428;6.256;2023-02-28T03:00:30;10.52;;;7.78;;
41333;SDS011;27078;46.428;6.256;2023-02-28T03:02:59;11.52;;;7.70;;
41333;SDS011;27078;46.428;6.256;2023-02-28T03:05:27;10.85;;;7.40;;
41333;SDS011;27078;46.428;6.256;2023-02-28T03:08:13;11.63;;;7.80;;
41333;SDS011;27078;46.428;6.256;2023-02-28T03:10:41;12.32;;;7.88;;
41333;SDS011;27078;46.428;6.256;2023-02-28T03:25:05;11.77;;;8.10;;
41333;SDS011;27078;46.428;6.256;2023-02-28T03:30:51;11.02;;;7.28;;
41333;SDS011;27078;46.428;6.256;2023-02-28T03:36:22;13.48;;;8.50;;
41333;SDS011;27078;46.428;6.256;2023-02-28T03:39:05;11.37;;;8.13;;
41333;SDS011;27078;46.428;6.256;2023-02-28T03:41:47;12.52;;;8.15;;
41333;SDS011;27078;46.428;6.256;2023-02-28T03:47:11;12.00;;;7.75;;
41333;SDS011;27078;46.428;6.256;2023-02-28T03:49:42;12.57;;;8.75;;
41333;SDS011;27078;46.428;6.256;2023-02-28T03:54:45;14.02;;;8.15;;
41333;SDS011;27078;46.428;6.256;2023-02-28T03:57:37;12.00;;;8.15;;
41333;SDS011;27078;46.428;6.256;2023-02-28T04:02:37;12.07;;;8.20;;
41333;SDS011;27078;46.428;6.256;2023-02-28T04:05:02;11.63;;;7.93;;
41333;SDS011;27078;46.428;6.256;2023-02-28T04:07:28;11.65;;;8.30;;
41333;SDS011;27078;46.428;6.256;2023-02-28T04:09:55;11.63;;;8.00;;
41333;SDS011;27078;46.428;6.256;2023-02-28T04:12:20;12.02;;;8.60;;
41333;SDS011;27078;46.428;6.256;2023-02-28T04:14:48;11.60;;;8.25;;
41333;SDS011;27078;46.428;6.256;2023-02-28T04:17:13;11.85;;;8.07;;
41333;SDS011;27078;46.428;6.256;2023-02-28T04:19:38;11.90;;;8.13;;
41333;SDS011;27078;46.428;6.256;2023-02-28T04:22:04;13.35;;;8.50;;
41333;SDS011;27078;46.428;6.256;2023-02-28T04:24:29;15.88;;;8.10;;
41333;SDS011;27078;46.428;6.256;2023-02-28T04:26:55;11.73;;;8.23;;
41333;SDS011;27078;46.428;6.256;2023-02-28T04:29:28;12.85;;;8.90;;
41333;SDS011;27078;46.428;6.256;2023-02-28T04:31:56;11.23;;;7.82;;
41333;SDS011;27078;46.428;6.256;2023-02-28T04:34:22;12.52;;;9.10;;
41333;SDS011;27078;46.428;6.256;2023-02-28T04:36:48;13.80;;;8.90;;
41333;SDS011;27078;46.428;6.256;2023-02-28T04:39:15;12.20;;;8.43;;
41333;SDS011;27078;46.428;6.256;2023-02-28T04:41:43;13.00;;;8.02;;
41333;SDS011;27078;46.428;6.256;2023-02-28T04:44:09;13.35;;;8.68;;
41333;SDS011;27078;46.428;6.256;2023-02-28T04:46:34;14.55;;;8.68;;
41333;SDS011;27078;46.428;6.256;2023-02-28T04:48:59;12.57;;;8.77;;
41333;SDS011;27078;46.428;6.256;2023-02-28T04:51:25;12.10;;;8.20;;
41333;SDS011;27078;46.428;6.256;2023-02-28T04:53:50;12.98;;;8.02;;
41333;SDS011;27078;46.428;6.256;2023-02-28T04:56:16;12.00;;;8.40;;
41333;SDS011;27078;46.428;6.256;2023-02-28T04:58:42;12.23;;;8.25;;
41333;SDS011;27078;46.428;6.256;2023-02-28T05:01:27;12.50;;;8.13;;
41333;SDS011;27078;46.428;6.256;2023-02-28T05:03:55;11.68;;;8.40;;
41333;SDS011;27078;46.428;6.256;2023-02-28T05:06:26;12.85;;;8.02;;
41333;SDS011;27078;46.428;6.256;2023-02-28T05:08:52;12.90;;;8.85;;
41333;SDS011;27078;46.428;6.256;2023-02-28T05:11:23;12.45;;;8.60;;
41333;SDS011;27078;46.428;6.256;2023-02-28T05:13:51;12.80;;;8.30;;
41333;SDS011;27078;46.428;6.256;2023-02-28T05:16:17;13.95;;;8.43;;
41333;SDS011;27078;46.428;6.256;2023-02-28T05:18:43;13.63;;;8.73;;
41333;SDS011;27078;46.428;6.256;2023-02-28T05:23:59;13.98;;;8.70;;
41333;SDS011;27078;46.428;6.256;2023-02-28T05:26:26;13.27;;;8.68;;
41333;SDS011;27078;46.428;6.256;2023-02-28T05:28:52;11.85;;;8.13;;
41333;SDS011;27078;46.428;6.256;2023-02-28T05:31:18;12.93;;;8.45;;
41333;SDS011;27078;46.428;6.256;2023-02-28T05:33:44;14.50;;;8.93;;
41333;SDS011;27078;46.428;6.256;2023-02-28T05:36:09;14.55;;;8.93;;
41333;SDS011;27078;46.428;6.256;2023-02-28T05:38:34;12.18;;;8.38;;
41333;SDS011;27078;46.428;6.256;2023-02-28T05:41:00;13.85;;;8.50;;
41333;SDS011;27078;46.428;6.256;2023-02-28T05:43:29;11.88;;;8.43;;
41333;SDS011;27078;46.428;6.256;2023-02-28T05:45:54;13.88;;;8.70;;
41333;SDS011;27078;46.428;6.256;2023-02-28T05:48:19;12.77;;;8.57;;
41333;SDS011;27078;46.428;6.256;2023-02-28T05:50:45;13.07;;;8.32;;
41333;SDS011;27078;46.428;6.256;2023-02-28T05:53:11;12.55;;;8.88;;
41333;SDS011;27078;46.428;6.256;2023-02-28T05:55:36;12.02;;;9.13;;
41333;SDS011;27078;46.428;6.256;2023-02-28T05:58:02;12.13;;;9.02;;
41333;SDS011;27078;46.428;6.256;2023-02-28T06:00:27;19.23;;;8.30;;
41333;SDS011;27078;46.428;6.256;2023-02-28T06:02:53;12.48;;;8.77;;
41333;SDS011;27078;46.428;6.256;2023-02-28T06:05:21;13.93;;;8.90;;
41333;SDS011;27078;46.428;6.256;2023-02-28T06:07:47;12.32;;;8.82;;
41333;SDS011;27078;46.428;6.256;2023-02-28T06:10:12;13.60;;;8.52;;
41333;SDS011;27078;46.428;6.256;2023-02-28T06:12:38;12.43;;;8.80;;
41333;SDS011;27078;46.428;6.256;2023-02-28T06:15:06;12.63;;;8.48;;
41333;SDS011;27078;46.428;6.256;2023-02-28T06:17:32;13.93;;;8.80;;
41333;SDS011;27078;46.428;6.256;2023-02-28T06:19:58;13.55;;;8.65;;
41333;SDS011;27078;46.428;6.256;2023-02-28T06:22:23;12.90;;;9.48;;
41333;SDS011;27078;46.428;6.256;2023-02-28T06:24:48;13.68;;;8.68;;
41333;SDS011;27078;46.428;6.256;2023-02-28T06:27:13;12.55;;;8.60;;
41333;SDS011;27078;46.428;6.256;2023-02-28T06:29:39;13.73;;;9.43;;
41333;SDS011;27078;46.428;6.256;2023-02-28T06:32:05;11.65;;;8.40;;
41333;SDS011;27078;46.428;6.256;2023-02-28T06:34:30;12.50;;;8.90;;
41333;SDS011;27078;46.428;6.256;2023-02-28T06:36:56;13.75;;;9.25;;
41333;SDS011;27078;46.428;6.256;2023-02-28T06:39:21;13.32;;;8.77;;
41333;SDS011;27078;46.428;6.256;2023-02-28T06:41:46;16.45;;;9.48;;
41333;SDS011;27078;46.428;6.256;2023-02-28T06:44:13;13.07;;;8.95;;
41333;SDS011;27078;46.428;6.256;2023-02-28T06:46:42;14.05;;;8.90;;
41333;SDS011;27078;46.428;6.256;2023-02-28T06:49:09;14.30;;;9.38;;
41333;SDS011;27078;46.428;6.256;2023-02-28T06:51:35;13.57;;;8.55;;
41333;SDS011;27078;46.428;6.256;2023-02-28T06:54:02;13.15;;;8.73;;
41333;SDS011;27078;46.428;6.256;2023-02-28T06:56:28;13.90;;;9.68;;
41333;SDS011;27078;46.428;6.256;2023-02-28T06:58:53;16.08;;;9.15;;
41333;SDS011;27078;46.428;6.256;2023-02-28T07:01:19;13.13;;;8.65;;
41333;SDS011;27078;46.428;6.256;2023-02-28T07:03:44;14.98;;;9.18;;
41333;SDS011;27078;46.428;6.256;2023-02-28T07:06:10;13.75;;;9.45;;
41333;SDS011;27078;46.428;6.256;2023-02-28T07:08:35;14.30;;;9.23;;
41333;SDS011;27078;46.428;6.256;2023-02-28T07:11:01;12.90;;;8.32;;
41333;SDS011;27078;46.428;6.256;2023-02-28T07:13:28;11.88;;;8.55;;
41333;SDS011;27078;46.428;6.256;2023-02-28T07:15:57;13.43;;;9.15;;
41333;SDS011;27078;46.428;6.256;2023-02-28T07:18:25;14.50;;;9.13;;
41333;SDS011;27078;46.428;6.256;2023-02-28T07:20:50;13.30;;;9.02;;
41333;SDS011;27078;46.428;6.256;2023-02-28T07:23:17;14.13;;;9.18;;
41333;SDS011;27078;46.428;6.256;2023-02-28T07:25:42;12.73;;;9.35;;
41333;SDS011;27078;46.428;6.256;2023-02-28T07:28:08;14.07;;;9.18;;
41333;SDS011;27078;46.428;6.256;2023-02-28T07:30:33;14.23;;;9.30;;
41333;SDS011;27078;46.428;6.256;2023-02-28T07:32:59;13.57;;;9.05;;
41333;SDS011;27078;46.428;6.256;2023-02-28T07:35:24;13.57;;;9.35;;
41333;SDS011;27078;46.428;6.256;2023-02-28T07:37:49;14.18;;;9.50;;
41333;SDS011;27078;46.428;6.256;2023-02-28T07:40:15;13.80;;;9.27;;
41333;SDS011;27078;46.428;6.256;2023-02-28T07:42:42;13.95;;;9.23;;
41333;SDS011;27078;46.428;6.256;2023-02-28T07:45:09;14.13;;;9.80;;
41333;SDS011;27078;46.428;6.256;2023-02-28T07:47:36;16.15;;;8.93;;
41333;SDS011;27078;46.428;6.256;2023-02-28T07:50:06;15.25;;;9.40;;
41333;SDS011;27078;46.428;6.256;2023-02-28T07:52:33;12.32;;;9.05;;
41333;SDS011;27078;46.428;6.256;2023-02-28T07:54:58;13.02;;;8.98;;
41333;SDS011;27078;46.428;6.256;2023-02-28T07:57:23;14.52;;;9.35;;
41333;SDS011;27078;46.428;6.256;2023-02-28T07:59:49;13.93;;;9.50;;
41333;SDS011;27078;46.428;6.256;2023-02-28T08:02:15;14.48;;;9.75;;
41333;SDS011;27078;46.428;6.256;2023-02-28T08:04:41;15.02;;;9.95;;
41333;SDS011;27078;46.428;6.256;2023-02-28T08:07:07;14.00;;;9.20;;
41333;SDS011;27078;46.428;6.256;2023-02-28T08:09:32;14.18;;;9.75;;
41333;SDS011;27078;46.428;6.256;2023-02-28T08:11:58;12.93;;;9.63;;
41333;SDS011;27078;46.428;6.256;2023-02-28T08:14:24;13.48;;;9.05;;
41333;SDS011;27078;46.428;6.256;2023-02-28T08:16:49;14.75;;;8.93;;
41333;SDS011;27078;46.428;6.256;2023-02-28T08:19:14;13.88;;;9.60;;
41333;SDS011;27078;46.428;6.256;2023-02-28T08:21:40;13.73;;;9.15;;
41333;SDS011;27078;46.428;6.256;2023-02-28T08:24:05;13.13;;;9.18;;
41333;SDS011;27078;46.428;6.256;2023-02-28T08:26:32;13.27;;;9.30;;
41333;SDS011;27078;46.428;6.256;2023-02-28T08:28:57;14.93;;;9.70;;
41333;SDS011;27078;46.428;6.256;2023-02-28T08:31:23;13.02;;;8.88;;
41333;SDS011;27078;46.428;6.256;2023-02-28T08:33:48;15.23;;;9.65;;
41333;SDS011;27078;46.428;6.256;2023-02-28T08:36:16;15.85;;;9.48;;
41333;SDS011;27078;46.428;6.256;2023-02-28T08:38:41;13.73;;;9.50;;
41333;SDS011;27078;46.428;6.256;2023-02-28T08:41:07;13.57;;;9.40;;
41333;SDS011;27078;46.428;6.256;2023-02-28T08:43:35;14.15;;;9.65;;
41333;SDS011;27078;46.428;6.256;2023-02-28T08:46:01;13.70;;;9.75;;
41333;SDS011;27078;46.428;6.256;2023-02-28T08:48:29;14.60;;;9.77;;
41333;SDS011;27078;46.428;6.256;2023-02-28T08:51:05;13.90;;;9.35;;
41333;SDS011;27078;46.428;6.256;2023-02-28T08:53:35;13.07;;;9.05;;
41333;SDS011;27078;46.428;6.256;2023-02-28T08:56:05;12.98;;;9.63;;
41333;SDS011;27078;46.428;6.256;2023-02-28T08:58:32;13.23;;;9.23;;
41333;SDS011;27078;46.428;6.256;2023-02-28T09:00:59;16.85;;;9.90;;
41333;SDS011;27078;46.428;6.256;2023-02-28T09:03:25;15.38;;;9.63;;
41333;SDS011;27078;46.428;6.256;2023-02-28T09:05:53;15.13;;;9.40;;
41333;SDS011;27078;46.428;6.256;2023-02-28T09:08:23;13.25;;;9.00;;
41333;SDS011;27078;46.428;6.256;2023-02-28T09:10:49;12.73;;;8.98;;
41333;SDS011;27078;46.428;6.256;2023-02-28T09:13:15;13.77;;;9.10;;
41333;SDS011;27078;46.428;6.256;2023-02-28T09:15:41;14.98;;;9.57;;
41333;SDS011;27078;46.428;6.256;2023-02-28T09:18:07;15.45;;;9.45;;
41333;SDS011;27078;46.428;6.256;2023-02-28T09:20:32;14.70;;;9.60;;
41333;SDS011;27078;46.428;6.256;2023-02-28T09:22:57;16.08;;;9.48;;
41333;SDS011;27078;46.428;6.256;2023-02-28T09:25:23;14.20;;;9.38;;
41333;SDS011;27078;46.428;6.256;2023-02-28T09:27:48;14.60;;;9.70;;
41333;SDS011;27078;46.428;6.256;2023-02-28T09:30:14;14.02;;;9.77;;
41333;SDS011;27078;46.428;6.256;2023-02-28T09:32:39;14.52;;;9.63;;
41333;SDS011;27078;46.428;6.256;2023-02-28T09:35:05;14.38;;;9.38;;
41333;SDS011;27078;46.428;6.256;2023-02-28T09:37:31;13.73;;;9.25;;
41333;SDS011;27078;46.428;6.256;2023-02-28T09:39:56;14.00;;;9.30;;
41333;SDS011;27078;46.428;6.256;2023-02-28T09:42:24;12.05;;;8.77;;
41333;SDS011;27078;46.428;6.256;2023-02-28T09:44:56;12.35;;;9.18;;
41333;SDS011;27078;46.428;6.256;2023-02-28T09:47:29;12.43;;;8.75;;
41333;SDS011;27078;46.428;6.256;2023-02-28T09:50:02;13.90;;;9.40;;
41333;SDS011;27078;46.428;6.256;2023-02-28T09:52:41;12.48;;;9.02;;
41333;SDS011;27078;46.428;6.256;2023-02-28T09:55:28;11.60;;;8.77;;
41333;SDS011;27078;46.428;6.256;2023-02-28T09:57:58;12.27;;;8.43;;
41333;SDS011;27078;46.428;6.256;2023-02-28T10:05:50;13.77;;;9.20;;
41333;SDS011;27078;46.428;6.256;2023-02-28T10:08:27;14.57;;;9.50;;
41333;SDS011;27078;46.428;6.256;2023-02-28T10:11:00;14.38;;;9.55;;
41333;SDS011;27078;46.428;6.256;2023-02-28T10:16:13;11.95;;;8.65;;
41333;SDS011;27078;46.428;6.256;2023-02-28T10:21:52;14.75;;;9.38;;
41333;SDS011;27078;46.428;6.256;2023-02-28T10:24:27;11.75;;;8.85;;
41333;SDS011;27078;46.428;6.256;2023-02-28T10:27:18;14.40;;;9.57;;
41333;SDS011;27078;46.428;6.256;2023-02-28T10:29:56;12.90;;;9.43;;
41333;SDS011;27078;46.428;6.256;2023-02-28T10:32:27;13.60;;;9.30;;
41333;SDS011;27078;46.428;6.256;2023-02-28T10:34:59;13.20;;;9.35;;
41333;SDS011;27078;46.428;6.256;2023-02-28T10:37:31;14.18;;;9.70;;
41333;SDS011;27078;46.428;6.256;2023-02-28T10:40:03;13.50;;;9.40;;
41333;SDS011;27078;46.428;6.256;2023-02-28T10:42:31;12.88;;;9.65;;
41333;SDS011;27078;46.428;6.256;2023-02-28T10:45:11;13.48;;;9.18;;
41333;SDS011;27078;46.428;6.256;2023-02-28T10:50:26;13.60;;;9.48;;
41333;SDS011;27078;46.428;6.256;2023-02-28T10:52:53;13.32;;;9.90;;
41333;SDS011;27078;46.428;6.256;2023-02-28T10:55:20;13.68;;;9.55;;
41333;SDS011;27078;46.428;6.256;2023-02-28T10:57:49;13.55;;;9.88;;
41333;SDS011;27078;46.428;6.256;2023-02-28T11:00:25;13.75;;;9.57;;
41333;SDS011;27078;46.428;6.256;2023-02-28T11:02:59;13.70;;;9.80;;
41333;SDS011;27078;46.428;6.256;2023-02-28T11:05:34;13.95;;;9.52;;
41333;SDS011;27078;46.428;6.256;2023-02-28T11:08:12;14.27;;;9.88;;
41333;SDS011;27078;46.428;6.256;2023-02-28T11:10:44;13.45;;;9.40;;
41333;SDS011;27078;46.428;6.256;2023-02-28T11:13:19;13.68;;;9.35;;
41333;SDS011;27078;46.428;6.256;2023-02-28T11:15:54;13.48;;;9.38;;
41333;SDS011;27078;46.428;6.256;2023-02-28T11:18:27;14.75;;;10.32;;
41333;SDS011;27078;46.428;6.256;2023-02-28T11:21:15;14.23;;;10.10;;
41333;SDS011;27078;46.428;6.256;2023-02-28T11:23:45;13.50;;;9.38;;
41333;SDS011;27078;46.428;6.256;2023-02-28T11:26:14;14.35;;;10.50;;
41333;SDS011;27078;46.428;6.256;2023-02-28T11:28:41;13.63;;;10.35;;
41333;SDS011;27078;46.428;6.256;2023-02-28T11:36:14;14.60;;;10.45;;
41333;SDS011;27078;46.428;6.256;2023-02-28T11:38:46;15.00;;;10.10;;
41333;SDS011;27078;46.428;6.256;2023-02-28T11:46:51;15.68;;;10.50;;
41333;SDS011;27078;46.428;6.256;2023-02-28T11:49:43;14.45;;;10.93;;
41333;SDS011;27078;46.428;6.256;2023-02-28T11:55:35;14.07;;;9.90;;
41333;SDS011;27078;46.428;6.256;2023-02-28T11:58:05;16.08;;;9.98;;
41333;SDS011;27078;46.428;6.256;2023-02-28T12:17:01;14.13;;;10.52;;
41333;SDS011;27078;46.428;6.256;2023-02-28T12:19:42;12.15;;;9.90;;
41333;SDS011;27078;46.428;6.256;2023-02-28T12:22:12;12.77;;;9.25;;
41333;SDS011;27078;46.428;6.256;2023-02-28T12:27:16;14.27;;;9.93;;
41333;SDS011;27078;46.428;6.256;2023-02-28T12:29:47;14.73;;;9.70;;
41333;SDS011;27078;46.428;6.256;2023-02-28T12:32:32;13.32;;;9.52;;
41333;SDS011;27078;46.428;6.256;2023-02-28T12:37:41;11.85;;;9.23;;
41333;SDS011;27078;46.428;6.256;2023-02-28T12:40:15;13.07;;;9.40;;
41333;SDS011;27078;46.428;6.256;2023-02-28T12:45:30;11.65;;;9.43;;
41333;SDS011;27078;46.428;6.256;2023-02-28T12:48:28;11.70;;;9.20;;
41333;SDS011;27078;46.428;6.256;2023-02-28T12:51:01;11.95;;;9.00;;
41333;SDS011;27078;46.428;6.256;2023-02-28T12:53:40;13.50;;;9.73;;
41333;SDS011;27078;46.428;6.256;2023-02-28T12:56:27;12.73;;;9.40;;
41333;SDS011;27078;46.428;6.256;2023-02-28T12:59:03;14.10;;;9.30;;
41333;SDS011;27078;46.428;6.256;2023-02-28T13:13:32;13.40;;;9.23;;
41333;SDS011;27078;46.428;6.256;2023-02-28T13:16:08;12.75;;;9.52;;
41333;SDS011;27078;46.428;6.256;2023-02-28T13:18:36;12.50;;;9.57;;
41333;SDS011;27078;46.428;6.256;2023-02-28T13:21:08;13.80;;;10.45;;
41333;SDS011;27078;46.428;6.256;2023-02-28T13:35:12;12.82;;;9.65;;
41333;SDS011;27078;46.428;6.256;2023-02-28T13:37:34;13.73;;;10.32;;
41333;SDS011;27078;46.428;6.256;2023-02-28T13:43:02;12.75;;;9.95;;
41333;SDS011;27078;46.428;6.256;2023-02-28T13:45:32;14.60;;;10.35;;
41333;SDS011;27078;46.428;6.256;2023-02-28T13:48:25;13.60;;;10.30;;
41333;SDS011;27078;46.428;6.256;2023-02-28T13:50:52;14.00;;;10.57;;
41333;SDS011;27078;46.428;6.256;2023-02-28T13:53:27;12.75;;;9.43;;
41333;SDS011;27078;46.428;6.256;2023-02-28T13:56:08;15.35;;;10.68;;
41333;SDS011;27078;46.428;6.256;2023-02-28T13:58:54;12.07;;;9.73;;
41333;SDS011;27078;46.428;6.256;2023-02-28T14:01:34;12.52;;;9.40;;
41333;SDS011;27078;46.428;6.256;2023-02-28T14:07:09;13.45;;;9.70;;
41333;SDS011;27078;46.428;6.256;2023-02-28T14:09:44;13.27;;;10.15;;
41333;SDS011;27078;46.428;6.256;2023-02-28T14:18:17;14.50;;;10.27;;
41333;SDS011;27078;46.428;6.256;2023-02-28T14:20:48;13.20;;;9.50;;
41333;SDS011;27078;46.428;6.256;2023-02-28T14:26:16;12.57;;;9.55;;
41333;SDS011;27078;46.428;6.256;2023-02-28T14:29:14;12.57;;;9.25;;
41333;SDS011;27078;46.428;6.256;2023-02-28T14:37:15;12.90;;;9.30;;
41333;SDS011;27078;46.428;6.256;2023-02-28T14:39:46;14.02;;;10.10;;
41333;SDS011;27078;46.428;6.256;2023-02-28T14:42:32;14.20;;;9.65;;
41333;SDS011;27078;46.428;6.256;2023-02-28T14:44:58;14.77;;;8.80;;
41333;SDS011;27078;46.428;6.256;2023-02-28T14:47:29;11.18;;;8.95;;
41333;SDS011;27078;46.428;6.256;2023-02-28T14:49:58;12.07;;;9.30;;
41333;SDS011;27078;46.428;6.256;2023-02-28T14:52:26;12.65;;;8.88;;
41333;SDS011;27078;46.428;6.256;2023-02-28T14:54:55;13.68;;;8.95;;
41333;SDS011;27078;46.428;6.256;2023-02-28T14:57:26;12.10;;;8.77;;
41333;SDS011;27078;46.428;6.256;2023-02-28T15:00:14;13.60;;;8.93;;
41333;SDS011;27078;46.428;6.256;2023-02-28T15:02:41;13.40;;;9.57;;
41333;SDS011;27078;46.428;6.256;2023-02-28T15:07:45;14.40;;;9.63;;
41333;SDS011;27078;46.428;6.256;2023-02-28T15:12:57;13.38;;;9.38;;
41333;SDS011;27078;46.428;6.256;2023-02-28T15:15:27;13.23;;;9.13;;
41333;SDS011;27078;46.428;6.256;2023-02-28T15:20:54;12.00;;;9.48;;
41333;SDS011;27078;46.428;6.256;2023-02-28T15:23:21;12.43;;;8.95;;
41333;SDS011;27078;46.428;6.256;2023-02-28T15:25:47;16.48;;;9.30;;
41333;SDS011;27078;46.428;6.256;2023-02-28T15:28:17;12.02;;;8.52;;
41333;SDS011;27078;46.428;6.256;2023-02-28T15:30:59;13.70;;;9.18;;
41333;SDS011;27078;46.428;6.256;2023-02-28T15:33:30;12.80;;;9.00;;
41333;SDS011;27078;46.428;6.256;2023-02-28T15:36:04;12.60;;;9.02;;
41333;SDS011;27078;46.428;6.256;2023-02-28T15:38:33;12.55;;;8.75;;
41333;SDS011;27078;46.428;6.256;2023-02-28T15:41:00;12.43;;;9.07;;
41333;SDS011;27078;46.428;6.256;2023-02-28T15:48:34;12.00;;;9.00;;
41333;SDS011;27078;46.428;6.256;2023-02-28T15:53:30;12.40;;;9.02;;
41333;SDS011;27078;46.428;6.256;2023-02-28T15:56:03;14.80;;;9.75;;
41333;SDS011;27078;46.428;6.256;2023-02-28T15:58:44;15.43;;;9.18;;
41333;SDS011;27078;46.428;6.256;2023-02-28T16:01:23;13.30;;;9.68;;
41333;SDS011;27078;46.428;6.256;2023-02-28T16:03:56;13.27;;;9.48;;
41333;SDS011;27078;46.428;6.256;2023-02-28T16:09:04;13.27;;;9.25;;
41333;SDS011;27078;46.428;6.256;2023-02-28T16:11:33;17.20;;;9.45;;
41333;SDS011;27078;46.428;6.256;2023-02-28T16:14:03;15.95;;;9.10;;
41333;SDS011;27078;46.428;6.256;2023-02-28T16:16:28;13.88;;;9.20;;
41333;SDS011;27078;46.428;6.256;2023-02-28T16:18:55;14.38;;;9.10;;
41333;SDS011;27078;46.428;6.256;2023-02-28T16:21:21;12.13;;;9.27;;
41333;SDS011;27078;46.428;6.256;2023-02-28T16:23:46;13.52;;;9.70;;
41333;SDS011;27078;46.428;6.256;2023-02-28T16:26:22;13.57;;;9.45;;
41333;SDS011;27078;46.428;6.256;2023-02-28T16:28:50;14.27;;;8.93;;
41333;SDS011;27078;46.428;6.256;2023-02-28T16:31:17;12.98;;;9.68;;
41333;SDS011;27078;46.428;6.256;2023-02-28T16:33:43;12.57;;;8.93;;
41333;SDS011;27078;46.428;6.256;2023-02-28T16:36:15;12.50;;;9.15;;
41333;SDS011;27078;46.428;6.256;2023-02-28T16:38:42;13.45;;;9.63;;
41333;SDS011;27078;46.428;6.256;2023-02-28T16:41:11;12.45;;;9.40;;
41333;SDS011;27078;46.428;6.256;2023-02-28T16:43:44;14.60;;;9.63;;
41333;SDS011;27078;46.428;6.256;2023-02-28T16:46:13;14.35;;;9.43;;
41333;SDS011;27078;46.428;6.256;2023-02-28T16:48:39;14.35;;;9.50;;
41333;SDS011;27078;46.428;6.256;2023-02-28T16:51:11;13.27;;;9.38;;
41333;SDS011;27078;46.428;6.256;2023-02-28T16:53:39;14.30;;;9.75;;
41333;SDS011;27078;46.428;6.256;2023-02-28T16:56:05;12.93;;;9.23;;
41333;SDS011;27078;46.428;6.256;2023-02-28T16:58:38;13.20;;;9.18;;
41333;SDS011;27078;46.428;6.256;2023-02-28T17:01:04;18.15;;;9.75;;
41333;SDS011;27078;46.428;6.256;2023-02-28T17:03:29;12.88;;;9.07;;
41333;SDS011;27078;46.428;6.256;2023-02-28T17:05:55;13.15;;;9.55;;
41333;SDS011;27078;46.428;6.256;2023-02-28T17:08:21;13.77;;;9.73;;
41333;SDS011;27078;46.428;6.256;2023-02-28T17:10:46;15.40;;;9.98;;
41333;SDS011;27078;46.428;6.256;2023-02-28T17:13:12;14.10;;;9.80;;
41333;SDS011;27078;46.428;6.256;2023-02-28T17:15:38;14.40;;;10.27;;
41333;SDS011;27078;46.428;6.256;2023-02-28T17:18:06;14.48;;;9.73;;
41333;SDS011;27078;46.428;6.256;2023-02-28T17:20:34;14.18;;;9.73;;
41333;SDS011;27078;46.428;6.256;2023-02-28T17:23:00;13.75;;;10.02;;
41333;SDS011;27078;46.428;6.256;2023-02-28T17:25:26;13.40;;;9.77;;
41333;SDS011;27078;46.428;6.256;2023-02-28T17:27:51;14.43;;;9.77;;
41333;SDS011;27078;46.428;6.256;2023-02-28T17:30:18;13.68;;;9.60;;
41333;SDS011;27078;46.428;6.256;2023-02-28T17:32:46;14.52;;;9.60;;
41333;SDS011;27078;46.428;6.256;2023-02-28T17:35:12;15.00;;;9.52;;
41333;SDS011;27078;46.428;6.256;2023-02-28T17:37:38;14.45;;;9.85;;
41333;SDS011;27078;46.428;6.256;2023-02-28T17:40:04;13.70;;;9.70;;
41333;SDS011;27078;46.428;6.256;2023-02-28T17:42:32;16.42;;;10.60;;
41333;SDS011;27078;46.428;6.256;2023-02-28T17:44:57;15.95;;;10.00;;
41333;SDS011;27078;46.428;6.256;2023-02-28T17:47:23;14.20;;;9.88;;